createdAt,value
2022-11-08T00:02:23.251Z,8.80
2022-11-08T00:04:52.639Z,8.79
2022-11-08T00:07:38.105Z,8.76
2022-11-08T00:10:23.611Z,8.73
2022-11-08T00:13:08.807Z,8.70
2022-11-08T00:15:38.705Z,8.68
2022-11-08T00:18:07.231Z,8.64
2022-11-08T00:20:34.945Z,8.64
2022-11-08T00:23:01.969Z,8.63
2022-11-08T00:25:28.696Z,8.62
2022-11-08T00:27:55.291Z,8.59
2022-11-08T00:30:21.888Z,8.56
2022-11-08T00:32:48.486Z,8.54
2022-11-08T00:35:15.330Z,8.52
2022-11-08T00:37:42.019Z,8.48
2022-11-08T00:40:09.059Z,8.47
2022-11-08T00:42:35.608Z,8.48
2022-11-08T00:45:02.255Z,8.47
2022-11-08T00:47:28.831Z,8.47
2022-11-08T00:49:57.996Z,8.45
2022-11-08T00:52:24.999Z,8.44
2022-11-08T00:54:56.336Z,8.42
2022-11-08T00:57:40.854Z,8.41
2022-11-08T01:00:13.181Z,8.38
2022-11-08T01:02:39.820Z,8.33
2022-11-08T01:05:06.688Z,8.32
2022-11-08T01:07:34.127Z,8.30
2022-11-08T01:10:00.756Z,8.28
2022-11-08T01:12:27.368Z,8.26
2022-11-08T01:14:54.423Z,8.24
2022-11-08T01:17:21.175Z,8.24
2022-11-08T01:19:47.976Z,8.22
2022-11-08T01:22:17.448Z,8.24
2022-11-08T01:24:44.032Z,8.24
2022-11-08T01:27:10.801Z,8.22
2022-11-08T01:29:37.395Z,8.20
2022-11-08T01:32:04.067Z,8.18
2022-11-08T01:34:33.502Z,8.15
2022-11-08T01:37:00.040Z,8.15
2022-11-08T01:39:27.447Z,8.14
2022-11-08T01:41:57.144Z,8.12
2022-11-08T01:44:28.113Z,8.12
2022-11-08T01:46:54.708Z,8.11
2022-11-08T01:49:32.355Z,8.11
2022-11-08T01:52:05.125Z,8.11
2022-11-08T01:54:35.989Z,8.08
2022-11-08T01:57:07.140Z,8.08
2022-11-08T01:59:41.686Z,8.06
2022-11-08T02:02:16.183Z,8.04
2022-11-08T02:04:43.889Z,8.04
2022-11-08T02:07:13.306Z,8.04
2022-11-08T02:09:43.135Z,8.04
2022-11-08T02:12:11.009Z,8.03
2022-11-08T02:14:38.115Z,8.04
2022-11-08T02:17:06.969Z,8.03
2022-11-08T02:19:43.935Z,8.04
2022-11-08T02:22:22.764Z,8.01
2022-11-08T02:24:49.404Z,8.02
2022-11-08T02:27:19.048Z,8.03
2022-11-08T02:29:45.631Z,8.03
2022-11-08T02:32:12.725Z,8.03
2022-11-08T02:34:44.111Z,8.02
2022-11-08T02:37:13.298Z,8.03
2022-11-08T02:39:39.906Z,8.02
2022-11-08T02:42:06.540Z,8.02
2022-11-08T02:44:33.244Z,8.02
2022-11-08T02:46:59.857Z,8.03
2022-11-08T02:49:26.450Z,8.02
2022-11-08T02:51:54.104Z,8.01
2022-11-08T02:54:21.029Z,7.99
2022-11-08T02:56:50.805Z,7.99
2022-11-08T02:59:20.273Z,8.00
2022-11-08T03:01:46.906Z,8.00
2022-11-08T03:04:13.724Z,8.00
2022-11-08T03:06:40.325Z,7.99
2022-11-08T03:09:06.956Z,7.98
2022-11-08T03:11:33.593Z,7.98
2022-11-08T03:14:00.209Z,7.97
2022-11-08T03:16:26.794Z,7.96
2022-11-08T03:18:53.868Z,7.95
2022-11-08T03:21:23.577Z,7.95
2022-11-08T03:23:50.222Z,7.96
2022-11-08T03:26:16.826Z,7.96
2022-11-08T03:28:43.468Z,7.96
2022-11-08T03:31:10.260Z,7.95
2022-11-08T03:33:37.004Z,7.95
2022-11-08T03:36:03.880Z,7.94
2022-11-08T03:38:32.828Z,7.95
2022-11-08T03:40:59.422Z,7.95
2022-11-08T03:43:26.580Z,7.95
2022-11-08T03:45:53.396Z,7.95
2022-11-08T03:48:20.756Z,7.95
2022-11-08T03:50:47.509Z,7.95
2022-11-08T03:53:14.044Z,7.94
2022-11-08T03:55:44.321Z,7.93
2022-11-08T03:58:12.112Z,7.94
2022-11-08T04:00:41.754Z,7.94
2022-11-08T04:03:11.762Z,7.94
2022-11-08T04:05:38.333Z,7.93
2022-11-08T04:08:05.441Z,7.91
2022-11-08T04:10:32.418Z,7.91
2022-11-08T04:13:19.072Z,7.89
2022-11-08T04:15:46.691Z,7.89
2022-11-08T04:18:31.626Z,7.89
2022-11-08T04:21:19.286Z,7.90
2022-11-08T04:23:47.022Z,7.87
2022-11-08T04:26:13.627Z,7.86
2022-11-08T04:28:41.669Z,7.86
2022-11-08T04:31:16.665Z,7.87
2022-11-08T04:33:43.900Z,7.88
2022-11-08T04:36:13.529Z,7.88
2022-11-08T04:38:42.467Z,7.87
2022-11-08T04:41:14.528Z,7.89
2022-11-08T04:43:41.573Z,7.87
2022-11-08T04:46:10.429Z,7.86
2022-11-08T04:48:37.119Z,7.84
2022-11-08T04:51:13.030Z,7.83
2022-11-08T04:53:39.853Z,7.80
2022-11-08T04:56:27.659Z,7.80
2022-11-08T04:58:56.560Z,7.76
2022-11-08T05:01:28.648Z,7.77
2022-11-08T05:03:55.911Z,7.74
2022-11-08T05:06:27.967Z,7.74
2022-11-08T05:08:56.001Z,7.74
2022-11-08T05:11:26.068Z,7.71
2022-11-08T05:13:53.013Z,7.72
2022-11-08T05:16:32.140Z,7.72
2022-11-08T05:18:59.279Z,7.72
2022-11-08T05:21:45.665Z,7.73
2022-11-08T05:24:15.558Z,7.69
2022-11-08T05:26:44.383Z,7.69
2022-11-08T05:29:12.712Z,7.67
2022-11-08T05:31:39.784Z,7.67
2022-11-08T05:34:07.706Z,7.69
2022-11-08T05:36:34.495Z,7.71
2022-11-08T05:39:01.071Z,7.68
2022-11-08T05:41:27.653Z,7.69
2022-11-08T05:43:55.290Z,7.65
2022-11-08T05:46:23.660Z,7.62
2022-11-08T05:48:51.093Z,7.60
2022-11-08T05:51:19.026Z,7.56
2022-11-08T05:53:47.271Z,7.57
2022-11-08T05:56:14.347Z,7.56
2022-11-08T05:58:41.049Z,7.54
2022-11-08T06:01:13.128Z,7.53
2022-11-08T06:03:39.943Z,7.54
2022-11-08T06:06:12.346Z,7.56
2022-11-08T06:08:39.957Z,7.59
2022-11-08T06:11:12.296Z,7.62
2022-11-08T06:13:39.444Z,7.62
2022-11-08T06:16:09.617Z,7.60
2022-11-08T06:18:36.960Z,7.63
2022-11-08T06:21:05.517Z,7.63
2022-11-08T06:23:32.792Z,7.62
2022-11-08T06:26:00.100Z,7.63
2022-11-08T06:28:27.333Z,7.63
2022-11-08T06:30:54.165Z,7.66
2022-11-08T06:33:21.836Z,7.68
2022-11-08T06:35:48.621Z,7.69
2022-11-08T06:38:15.220Z,7.72
2022-11-08T06:40:41.878Z,7.74
2022-11-08T06:43:14.932Z,7.77
2022-11-08T06:45:44.986Z,7.76
2022-11-08T06:48:11.556Z,7.77
2022-11-08T06:50:38.188Z,7.79
2022-11-08T06:53:06.981Z,7.80
2022-11-08T06:55:35.072Z,7.82
2022-11-08T06:58:02.041Z,7.84
2022-11-08T07:00:28.937Z,7.84
2022-11-08T07:02:57.322Z,7.86
2022-11-08T07:05:24.646Z,7.86
2022-11-08T07:07:54.149Z,7.88
2022-11-08T07:10:22.682Z,7.88
2022-11-08T07:12:56.209Z,7.89
2022-11-08T07:15:23.013Z,7.91
2022-11-08T07:17:49.677Z,7.93
2022-11-08T07:20:16.386Z,7.97
2022-11-08T07:22:42.966Z,8.00
2022-11-08T07:25:09.729Z,7.99
2022-11-08T07:27:36.304Z,7.98
2022-11-08T07:30:03.392Z,7.97
2022-11-08T07:32:29.968Z,7.95
2022-11-08T07:34:56.512Z,7.92
2022-11-08T07:37:23.049Z,7.91
2022-11-08T07:39:52.277Z,7.89
2022-11-08T07:42:18.855Z,7.87
2022-11-08T07:44:45.413Z,7.86
2022-11-08T07:47:12.028Z,7.82
2022-11-08T07:49:38.591Z,7.81
2022-11-08T07:52:05.341Z,7.79
2022-11-08T07:54:31.971Z,7.78
2022-11-08T07:56:58.530Z,7.78
2022-11-08T07:59:25.135Z,7.77
2022-11-08T08:01:51.808Z,7.74
2022-11-08T08:04:18.466Z,7.73
2022-11-08T08:06:45.020Z,7.70
2022-11-08T08:09:11.614Z,7.68
2022-11-08T08:11:41.367Z,7.68
2022-11-08T08:14:07.958Z,7.68
2022-11-08T08:16:36.854Z,7.67
2022-11-08T08:19:04.537Z,7.67
2022-11-08T08:21:31.145Z,7.68
2022-11-08T08:23:57.748Z,7.67
2022-11-08T08:26:24.386Z,7.66
2022-11-08T08:28:50.987Z,7.65
2022-11-08T08:31:17.775Z,7.65
2022-11-08T08:33:44.425Z,7.64
2022-11-08T08:36:11.190Z,7.68
2022-11-08T08:38:44.141Z,7.69
2022-11-08T08:41:11.289Z,7.73
2022-11-08T08:43:37.965Z,7.77
2022-11-08T08:46:06.501Z,7.81
2022-11-08T08:48:33.725Z,7.83
2022-11-08T08:51:00.303Z,7.84
2022-11-08T08:53:27.243Z,7.84
2022-11-08T08:55:53.941Z,7.87
2022-11-08T08:58:21.268Z,7.88
2022-11-08T09:03:36.134Z,7.88
2022-11-08T09:06:02.976Z,7.90
2022-11-08T09:08:30.153Z,7.91
2022-11-08T09:10:58.817Z,7.91
2022-11-08T09:13:30.954Z,7.93
2022-11-08T09:15:59.085Z,7.95
2022-11-08T09:18:25.727Z,7.99
2022-11-08T09:20:55.518Z,8.03
2022-11-08T09:23:22.083Z,8.05
2022-11-08T09:25:48.835Z,8.08
2022-11-08T09:28:18.320Z,8.07
2022-11-08T09:30:44.958Z,8.09
2022-11-08T09:33:11.545Z,8.10
2022-11-08T09:35:38.175Z,8.12
2022-11-08T09:38:04.803Z,8.16
2022-11-08T09:40:42.488Z,8.23
2022-11-08T09:43:36.413Z,8.27
2022-11-08T09:46:02.996Z,8.30
2022-11-08T09:48:34.916Z,8.32
2022-11-08T09:51:10.285Z,8.37
2022-11-08T09:53:51.978Z,8.41
2022-11-08T09:56:21.743Z,8.39
2022-11-08T09:59:25.647Z,8.34
2022-11-08T10:01:52.385Z,8.28
2022-11-08T10:04:26.103Z,8.27
2022-11-08T10:06:58.198Z,8.24
2022-11-08T10:09:53.547Z,8.23
2022-11-08T10:12:54.781Z,8.22
2022-11-08T10:15:42.962Z,8.28
2022-11-08T10:18:40.031Z,8.30
2022-11-08T10:21:44.250Z,8.35
2022-11-08T10:24:35.212Z,8.39
2022-11-08T10:27:03.458Z,8.41
2022-11-08T10:29:42.051Z,8.44
2022-11-08T10:32:08.597Z,8.49
2022-11-08T10:34:46.668Z,8.54
2022-11-08T10:37:15.590Z,8.59
2022-11-08T10:40:00.078Z,8.63
2022-11-08T10:42:49.546Z,8.68
2022-11-08T10:45:16.298Z,8.69
2022-11-08T10:47:46.273Z,8.72
2022-11-08T10:50:20.020Z,8.75
2022-11-08T10:53:01.703Z,8.77
2022-11-08T10:55:38.657Z,8.80
2022-11-08T10:58:30.900Z,8.80
2022-11-08T11:01:27.138Z,8.80
2022-11-08T11:03:54.098Z,8.78
2022-11-08T11:06:29.912Z,8.81
2022-11-08T11:09:02.809Z,8.80
2022-11-08T11:11:32.070Z,8.77
2022-11-08T11:14:14.609Z,8.71
2022-11-08T11:16:54.150Z,8.67
2022-11-08T11:19:21.191Z,8.66
2022-11-08T11:21:56.019Z,8.63
2022-11-08T11:24:23.575Z,8.61
2022-11-08T11:27:02.559Z,8.57
2022-11-08T11:29:35.282Z,8.56
2022-11-08T11:32:20.583Z,8.53
2022-11-08T11:34:54.219Z,8.54
2022-11-08T11:37:55.571Z,8.54
2022-11-08T11:40:33.960Z,8.56
2022-11-08T11:43:25.484Z,8.58
2022-11-08T11:46:10.534Z,8.59
2022-11-08T11:48:44.721Z,8.56
2022-11-08T11:51:11.764Z,8.56
2022-11-08T11:53:40.255Z,8.57
2022-11-08T11:56:41.503Z,8.60
2022-11-08T11:59:33.590Z,8.63
2022-11-08T12:02:25.144Z,8.67
2022-11-08T12:05:42.163Z,8.67
2022-11-08T12:08:20.646Z,8.67
2022-11-08T12:10:59.318Z,8.67
2022-11-08T12:13:34.928Z,8.69
2022-11-08T12:16:26.166Z,8.71
2022-11-08T12:19:21.048Z,8.75
2022-11-08T12:22:14.248Z,8.80
2022-11-08T12:25:31.639Z,8.78
2022-11-08T12:28:17.193Z,8.73
2022-11-08T12:30:51.786Z,8.76
2022-11-08T12:33:40.067Z,8.82
2022-11-08T12:36:12.990Z,8.86
2022-11-08T12:38:48.251Z,8.88
2022-11-08T12:41:20.837Z,8.91
2022-11-08T12:44:10.118Z,8.92
2022-11-08T12:46:58.516Z,8.95
2022-11-08T12:49:37.053Z,8.97
2022-11-08T12:52:22.021Z,8.96
2022-11-08T12:54:53.584Z,8.95
2022-11-08T12:57:27.578Z,8.97
2022-11-08T13:00:18.633Z,8.97
2022-11-08T13:02:57.398Z,8.97
2022-11-08T13:05:33.428Z,8.98
2022-11-08T13:08:20.388Z,8.97
2022-11-08T13:10:53.993Z,8.96
2022-11-08T13:13:31.498Z,8.93
2022-11-08T13:16:08.718Z,8.87
2022-11-08T13:18:42.547Z,8.83
2022-11-08T13:21:30.142Z,8.79
2022-11-08T13:24:10.018Z,8.78
2022-11-08T13:26:43.192Z,8.77
2022-11-08T13:29:17.139Z,8.76
2022-11-08T13:32:03.047Z,8.77
2022-11-08T13:34:56.472Z,8.77
2022-11-08T13:38:07.678Z,8.79
2022-11-08T13:41:03.613Z,8.82
2022-11-08T13:43:32.882Z,8.80
2022-11-08T13:46:27.724Z,8.78
2022-11-08T13:49:05.386Z,8.77
2022-11-08T13:51:37.306Z,8.78
2022-11-08T13:54:22.374Z,8.80
2022-11-08T13:56:53.776Z,8.80
2022-11-08T13:59:29.378Z,8.78
2022-11-08T14:02:02.886Z,8.76
2022-11-08T14:05:07.996Z,8.77
2022-11-08T14:07:44.413Z,8.76
2022-11-08T14:10:25.697Z,8.75
2022-11-08T14:13:16.396Z,8.76
2022-11-08T14:15:51.891Z,8.76
2022-11-08T14:18:27.149Z,8.76
2022-11-08T14:20:54.917Z,8.75
2022-11-08T14:23:34.286Z,8.73
2022-11-08T14:26:11.061Z,8.70
2022-11-08T14:28:43.163Z,8.69
2022-11-08T14:31:23.935Z,8.68
2022-11-08T14:33:50.577Z,8.69
2022-11-08T14:36:19.814Z,8.70
2022-11-08T14:38:50.333Z,8.69
2022-11-08T14:41:25.648Z,8.68
2022-11-08T14:43:54.340Z,8.68
2022-11-08T14:46:29.011Z,8.67
2022-11-08T14:48:57.256Z,8.67
2022-11-08T14:51:25.614Z,8.68
2022-11-08T14:53:56.609Z,8.66
2022-11-08T14:56:26.138Z,8.64
2022-11-08T14:58:54.819Z,8.62
2022-11-08T15:01:24.726Z,8.61
2022-11-08T15:04:05.196Z,8.59
2022-11-08T15:06:35.388Z,8.60
2022-11-08T15:09:04.892Z,8.60
2022-11-08T15:11:42.911Z,8.59
2022-11-08T15:14:19.426Z,8.60
2022-11-08T15:16:52.712Z,8.57
2022-11-08T15:19:40.062Z,8.58
2022-11-08T15:22:26.459Z,8.59
2022-11-08T15:25:08.287Z,8.62
2022-11-08T15:27:34.888Z,8.61
2022-11-08T15:30:06.888Z,8.60
2022-11-08T15:32:37.538Z,8.59
2022-11-08T15:35:06.563Z,8.58
2022-11-08T15:37:37.809Z,8.58
2022-11-08T15:40:07.443Z,8.59
2022-11-08T15:42:35.271Z,8.59
2022-11-08T15:45:12.417Z,8.59
2022-11-08T15:47:42.006Z,8.58
2022-11-08T15:50:25.664Z,8.58
2022-11-08T15:52:55.153Z,8.59
2022-11-08T15:55:30.164Z,8.59
2022-11-08T15:57:58.978Z,8.60
2022-11-08T16:00:28.568Z,8.59
2022-11-08T16:02:55.802Z,8.59
2022-11-08T16:05:25.535Z,8.59
2022-11-08T16:07:53.216Z,8.59
2022-11-08T16:10:28.728Z,8.60
2022-11-08T16:12:56.479Z,8.59
2022-11-08T16:15:24.808Z,8.62
2022-11-08T16:17:51.931Z,8.62
2022-11-08T16:20:21.308Z,8.63
2022-11-08T16:22:47.943Z,8.62
2022-11-08T16:25:14.611Z,8.63
2022-11-08T16:27:41.245Z,8.64
2022-11-08T16:30:16.037Z,8.67
2022-11-08T16:32:42.972Z,8.67
2022-11-08T16:35:13.072Z,8.67
2022-11-08T16:37:41.031Z,8.68
2022-11-08T16:40:14.009Z,8.68
2022-11-08T16:42:40.588Z,8.70
2022-11-08T16:45:07.828Z,8.71
2022-11-08T16:47:35.128Z,8.71
2022-11-08T16:50:01.819Z,8.72
2022-11-08T16:52:28.430Z,8.73
2022-11-08T16:54:54.960Z,8.76
2022-11-08T16:57:34.192Z,8.75
2022-11-08T17:00:01.586Z,8.73
2022-11-08T17:02:34.039Z,8.73
2022-11-08T17:05:00.592Z,8.73
2022-11-08T17:07:28.199Z,8.75
2022-11-08T17:09:54.815Z,8.74
2022-11-08T17:12:21.715Z,8.73
2022-11-08T17:14:48.334Z,8.72
2022-11-08T17:17:15.470Z,8.72
2022-11-08T17:19:42.204Z,8.72
2022-11-08T17:22:08.800Z,8.72
2022-11-08T17:24:35.426Z,8.74
2022-11-08T17:27:02.412Z,8.73
2022-11-08T17:29:29.088Z,8.75
2022-11-08T17:31:55.690Z,8.75
2022-11-08T17:34:22.391Z,8.76
2022-11-08T17:36:52.739Z,8.76
2022-11-08T17:39:19.371Z,8.77
2022-11-08T17:41:45.952Z,8.76
2022-11-08T17:44:12.717Z,8.76
2022-11-08T17:46:39.315Z,8.77
2022-11-08T17:49:05.880Z,8.77
2022-11-08T17:51:32.523Z,8.77
2022-11-08T17:53:59.294Z,8.79
2022-11-08T17:56:25.921Z,8.81
2022-11-08T17:58:52.656Z,8.83
2022-11-08T18:01:19.637Z,8.84
2022-11-08T18:03:46.385Z,8.85
2022-11-08T18:06:14.442Z,8.86
2022-11-08T18:08:41.947Z,8.87
2022-11-08T18:11:08.872Z,8.89
2022-11-08T18:13:36.000Z,8.90
2022-11-08T18:16:11.757Z,8.89
2022-11-08T18:18:39.259Z,8.89
2022-11-08T18:21:07.685Z,8.90
2022-11-08T18:23:34.333Z,8.90
2022-11-08T18:26:01.531Z,8.91
2022-11-08T18:28:28.222Z,8.93
2022-11-08T18:30:54.836Z,8.93
2022-11-08T18:33:21.993Z,8.93
2022-11-08T18:35:48.816Z,8.96
2022-11-08T18:38:15.383Z,8.98
2022-11-08T18:40:45.676Z,8.98
2022-11-08T18:43:12.248Z,9.02
2022-11-08T18:45:39.067Z,9.05
2022-11-08T18:48:06.404Z,9.08
2022-11-08T18:50:33.111Z,9.09
2022-11-08T18:53:03.766Z,9.11
2022-11-08T18:55:31.826Z,9.14
2022-11-08T18:58:01.293Z,9.15
2022-11-08T19:00:27.905Z,9.16
2022-11-08T19:02:54.957Z,9.20
2022-11-08T19:05:21.654Z,9.24
2022-11-08T19:07:48.214Z,9.24
2022-11-08T19:10:14.840Z,9.25
2022-11-08T19:12:41.526Z,9.28
2022-11-08T19:15:08.851Z,9.28
2022-11-08T19:17:36.473Z,9.29
2022-11-08T19:20:04.038Z,9.32
2022-11-08T19:22:30.880Z,9.35
2022-11-08T19:24:57.456Z,9.36
2022-11-08T19:27:24.174Z,9.39
2022-11-08T19:29:50.801Z,9.40
2022-11-08T19:32:17.605Z,9.42
2022-11-08T19:34:46.991Z,9.45
2022-11-08T19:37:13.599Z,9.47
2022-11-08T19:39:40.228Z,9.49
2022-11-08T19:42:06.891Z,9.51
2022-11-08T19:44:33.617Z,9.53
2022-11-08T19:47:00.280Z,9.54
2022-11-08T19:49:28.780Z,9.56
2022-11-08T19:51:55.435Z,9.57
2022-11-08T19:54:22.075Z,9.59
2022-11-08T19:57:05.476Z,9.58
2022-11-08T19:59:32.904Z,9.60
2022-11-08T20:01:59.956Z,9.61
2022-11-08T20:04:26.715Z,9.63
2022-11-08T20:06:53.476Z,9.64
2022-11-08T20:09:20.137Z,9.64
2022-11-08T20:11:46.733Z,9.66
2022-11-08T20:14:14.005Z,9.68
2022-11-08T20:16:42.878Z,9.69
2022-11-08T20:19:12.671Z,9.72
2022-11-08T20:21:42.130Z,9.72
2022-11-08T20:24:10.403Z,9.71
2022-11-08T20:26:38.567Z,9.71
2022-11-08T20:29:07.205Z,9.70
2022-11-08T20:31:34.140Z,9.72
2022-11-08T20:34:01.694Z,9.71
2022-11-08T20:36:33.158Z,9.72
2022-11-08T20:39:06.482Z,9.71
2022-11-08T20:41:35.523Z,9.72
2022-11-08T20:44:02.595Z,9.73
2022-11-08T20:46:29.671Z,9.73
2022-11-08T20:49:00.257Z,9.75
2022-11-08T20:51:28.624Z,9.77
2022-11-08T20:53:56.156Z,9.78
2022-11-08T20:56:23.779Z,9.79
2022-11-08T20:58:51.837Z,9.80
2022-11-08T21:01:21.287Z,9.81
2022-11-08T21:03:48.379Z,9.83
2022-11-08T21:06:17.716Z,9.85
2022-11-08T21:09:08.249Z,9.87
2022-11-08T21:11:34.651Z,9.87
2022-11-08T21:14:03.118Z,9.88
2022-11-08T21:16:33.341Z,9.90
2022-11-08T21:19:09.306Z,9.93
2022-11-08T21:21:35.960Z,9.97
2022-11-08T21:24:02.926Z,10.00
2022-11-08T21:26:29.641Z,10.03
2022-11-08T21:28:56.293Z,10.05
2022-11-08T21:31:23.060Z,10.04
2022-11-08T21:33:49.854Z,10.05
2022-11-08T21:36:17.802Z,10.06
2022-11-08T21:38:44.733Z,10.07
2022-11-08T21:41:11.788Z,10.06
2022-11-08T21:43:43.349Z,10.07
2022-11-08T21:46:20.556Z,10.06
2022-11-08T21:48:52.448Z,10.04
2022-11-08T21:51:19.116Z,10.06
2022-11-08T21:53:54.083Z,10.05
2022-11-08T21:56:23.629Z,10.05
2022-11-08T21:58:50.317Z,10.05
2022-11-08T22:01:17.538Z,10.04
2022-11-08T22:03:44.436Z,10.04
2022-11-08T22:06:11.056Z,10.03
2022-11-08T22:08:37.714Z,10.04
2022-11-08T22:11:04.502Z,10.03
2022-11-08T22:13:31.168Z,10.04
2022-11-08T22:15:57.861Z,10.07
2022-11-08T22:18:42.966Z,10.09
2022-11-08T22:21:31.445Z,10.10
2022-11-08T22:23:58.097Z,10.12
2022-11-08T22:26:24.714Z,10.13
2022-11-08T22:28:51.366Z,10.13
2022-11-08T22:31:17.979Z,10.16
2022-11-08T22:33:44.592Z,10.17
2022-11-08T22:36:11.985Z,10.17
2022-11-08T22:38:38.918Z,10.18
2022-11-08T22:41:05.905Z,10.17
2022-11-08T22:43:36.416Z,10.16
2022-11-08T22:46:03.761Z,10.18
2022-11-08T22:48:30.482Z,10.17
2022-11-08T22:50:57.562Z,10.17
2022-11-08T22:53:27.572Z,10.16
2022-11-08T22:55:54.332Z,10.15
2022-11-08T22:58:21.299Z,10.14
2022-11-08T23:00:50.053Z,10.15
2022-11-08T23:03:16.983Z,10.14
2022-11-08T23:05:52.025Z,10.14
2022-11-08T23:08:20.041Z,10.12
2022-11-08T23:11:09.758Z,10.11
2022-11-08T23:13:57.959Z,10.12
2022-11-08T23:16:37.901Z,10.13
2022-11-08T23:19:29.015Z,10.15
2022-11-08T23:22:14.703Z,10.16
2022-11-08T23:24:44.993Z,10.16
2022-11-08T23:27:32.767Z,10.17
2022-11-08T23:30:17.952Z,10.18
2022-11-08T23:32:47.440Z,10.19
2022-11-08T23:35:15.198Z,10.20
2022-11-08T23:37:41.875Z,10.21
2022-11-08T23:40:29.408Z,10.23
2022-11-08T23:43:22.156Z,10.25
2022-11-08T23:45:49.340Z,10.25
2022-11-08T23:48:15.995Z,10.26
2022-11-08T23:50:55.772Z,10.27
2022-11-08T23:53:25.251Z,10.28
2022-11-08T23:55:55.739Z,10.29
2022-11-08T23:58:23.087Z,10.28
